DIVISION OF AGRICULTURAL PHYSICS
INDIAN AGRICULTURAL RESEARCH INSTITUTE
NEW DELHI, INDIA-110012
Phone No. 011-25843014

(IARI: Latitude: 280 38'23"N, Longitude:770 09'27"E., Altitude: 228.61m above msl.)
Duration of data : Last 60 days
Date Max.
Temp.
(oC)
Min.
Temp.
(oC)
Rainfall
(mm)
Wind
Speed
(Kmph)
Wind
Direction-I
Wind
Direction-II
Weather
condition-I
(Code 0-9)
Weather
condition-II
(Code 0-9)
RH-I
(%)
RH-II
(%)
BSS
(hrs)
Evaporation
(mm)
2017-05-24 38.4 24.5 0.00 4.6 SE E 0 0 61.0 28.0 8.9 7.6
2017-05-25 40.8 26.6 0.00 5.4 SW SW 0 2 64.0 23.0 9.0 6.5
2017-05-26 41.5 27.5 0.00 3.4 W N 0 0 63.0 26.0 9.0 6.2
2017-05-27 44.5 28.4 0.00 7.9 S SE 0 0 65.0 43.0 10.0 7.2
2017-05-28 39.0 23.8 7.40 11.0 SE E 1 0 88.0 49.0 9.6 6.2
2017-05-29 35.0 22.2 7.20 9.9 E E 6 0 98.0 58.0 9.3 5.2
2017-05-30 32.4 23.5 0.00 6.0 C NE 0 0 75.0 49.0 7.3 5.0
2017-05-31 37.0 21.6 0.00 5.6 SW E 0 0 74.0 89.0 8.5 6.0
2017-06-01 33.2 23.2 33.20 6.1 C W 0 1 85.0 52.0 3.4 3.9
2017-06-02 37.0 23.5 0.00 3.8 SW W 0 0 81.0 30.0 10.0 5.2
2017-06-03 40.2 26.8 0.00 4.0 W N 0 0 69.0 31.0 9.5 6.0
2017-06-04 43.5 27.4 0.00 6.3 W NW 0 0 67.0 26.0 10.2 7.0
2017-06-05 45.5 34.0 0.00 12.4 W NW 1 0 65.0 34.0 8.5 9.0
2017-06-06 44.5 32.8 0.00 11.9 W SW 1 0 63.0 40.0 8.7 7.6
2017-06-07 42.5 25.0 0.00 13.1 E NE 1 0 68.0 49.0 5.8 7.0
2017-06-08 35.0 27.0 0.00 8.6 SE N 1 1 82.0 67.0 6.0 5.0
2017-06-09 35.0 24.6 0.00 5.3 C NW 1 0 71.0 49.0 6.2 5.0
2017-06-10 37.5 25.4 0.00 3.8 NW N 0 0 69.0 40.0 2.5 4.8
2017-06-11 39.6 23.6 0.00 7.8 E E 0 0 55.0 38.0 9.2 6.0
2017-06-12 37.2 23.4 0.00 3.9 C N 0 0 62.0 33.0 10.4 6.2
2017-06-13 40.0 26.0 0.00 6.0 W W 0 0 61.0 32.0 10.6 7.6
2017-06-14 41.8 26.2 0.00 7.7 C NW 0 0 64.0 34.0 8.0 7.2
2017-06-15 41.5 27.4 0.00 10.5 SW NW 0 0 62.0 36.0 7.0 8.0
2017-06-16 40.0 21.4 22.20 7.9 SW SE 1 0 96.0 61.0 8.2 7.4
2017-06-17 33.2 23.2 8.20 5.1 C W 1 1 87.0 75.0 3.5 4.2
2017-06-18 31.2 23.0 0.00 5.5 SW W 1 0 84.0 60.0 1.8 4.0
2017-06-19 35.2 24.0 4.60 6.7 S W 1 0 98.0 60.0 5.9 7.2
2017-06-20 36.0 21.6 97.20 7.6 W NW 1 1 96.0 76.0 4.0 5.2
2017-06-21 31.0 22.9 19.60 4.9 NE SE 1 1 98.0 89.0 3.9 4.6
2017-06-22 31.2 23.4 16.80 4.2 C W 0 1 98.0 63.0 2.7 3.8
2017-06-23 32.8 25.0 0.00 4.5 C NW 0 0 79.0 53.0 6.3 4.0
2017-06-24 35.0 25.5 0.00 2.9 C NW 0 1 77.0 54.0 10.9 5.5
2017-06-25 36.8 27.5 0.00 3.5 SW NE 0 0 73.0 45.0 4.1 6.2
2017-06-26 38.5 27.2 0.00 6.1 E C 1 0 76.0 55.0 7.5 6.4
2017-06-27 37.2 29.8 0.00 7.1 E E 0 0 77.0 56.0 4.8 7.0
2017-06-28 37.8 25.4 0.80 8.5 NW E 1 6 94.0 85.0 8.3 7.1
2017-06-29 33.0 23.0 84.80 6.9 SE SE 1 1 97.0 92.0 0.0 4.8
2017-06-30 29.8 25.0 3.40 4.0 SE SE 6 6 98.0 98.0 0.0 3.4
2017-07-01 30.0 25.0 46.20 3.0 SE E 1 0 95.0 73.0 0.5 3.4
2017-07-02 34.2 25.0 33.00 3.1 SE SE 1 1 98.0 69.0 2.6 4.0
2017-07-03 30.2 25.4 1.60 3.6 C N 1 0 98.0 67.0 0.7 3.4
2017-07-04 34.4 26.8 0.00 4.2 W W 1 0 88.0 63.0 5.9 5.8
2017-07-05 35.8 27.4 0.00 10.6 W W 1 1 81.0 65.0 5.4 5.5
2017-07-06 34.5 25.8 0.00 6.7 C N 1 1 85.0 62.0 1.0 5.0
2017-07-07 34.0 24.5 11.60 4.8 SE NE 1 0 90.0 63.0 0.7 5.0
2017-07-08 34.4 25.7 0.00 3.4 W N 0 0 74.0 58.0 4.0 5.2
2017-07-09 36.3 27.6 0.00 3.7 C NNW 0 0 78.0 49.0 7.8 5.6
2017-07-10 38.4 29.0 0.00 7.4 W W 0 0 65.0 51.0 7.8 6.6
2017-07-11 37.4 26.4 2.80 7.9 S C 1 1 72.0 67.0 8.1 4.9
2017-07-12 35.2 23.4 2.60 5.0 SE SE 1 0 92.0 87.0 3.9 5.6
2017-07-13 31.8 26.2 0.00 5.2 NE E 1 0 91.0 61.0 1.0 3.8
2017-07-14 34.4 26.4 0.00 6.8 E SE 1 1 82.0 58.0 8.0 4.0
2017-07-15 34.2 26.8 2.20 5.0 C SE 1 1 85.0 66.0 8.0 5.0
2017-07-16 33.7 26.9 0.00 5.8 SE SE 1 1 88.0 62.0 2.4 5.3
2017-07-17 35.4 27.9 0.00 4.4 E N 1 2 83.0 91.0 5.2 5.7
2017-07-18 32.0 26.1 5.20 4.2 E E 1 0 92.0 54.0 0.0 4.0
2017-07-19 36.1 26.6 0.00 3.5 E NE 0 1 79.0 55.0 8.2 5.5
2017-07-20 37.2 23.2 12.60 4.3 E E 6 0 96.0 81.0 6.3 4.3
2017-07-21 33.0 27.0 3.60 5.6 E E 1 1 81.0 59.0 5.6 3.6
2017-07-22 34.8 26.6 0.00 9.4 E 2 0 86.0 0.0 6.8 3.8

Abbrevations used:
I - Observations taken at 7.21 hrs. and II - Observations taken at 14:21 hrs.
Codes:
0 - Fair (clear and slightly clouded), 1 - Variable Sky, 2 - Mainly Overcast, 3 - Sand Storm or Dust Storm,4 - Fog or Thick Dust Haze, 5 - Drizzle, 6 - Rain,7 - Snow or Sleet, 8 - Shower (s), 9 - Thunder Storm with or without Precipitation